Time;durP1;ratioP1;P1;durP2;ratioP2;P2;SDS_P1;SDS_P2;PMS_P1;PMS_P2;Temp;Humidity;BMP_temperature;BMP_pressure;BME280_temperature;BME280_humidity;BME280_pressure;Samples;Min_cycle;Max_cycle;Signal;HPM_P1;HPM_P2
2021/07/13 00:03:57;;;;;;;2.70;2.00;;;22.30;99.90;;;;;;10339675;28;20364;-82
2021/07/13 00:09:00;;;;;;;1.60;1.50;;;22.30;99.90;;;;;;10302840;28;20266;-81
2021/07/13 00:14:04;;;;;;;2.37;2.17;;;22.20;99.90;;;;;;10281051;28;20188;-82
2021/07/13 00:19:07;;;;;;;3.70;1.83;;;22.20;99.90;;;;;;10297568;28;20232;-81
2021/07/13 00:24:09;;;;;;;2.03;1.40;;;22.20;99.90;;;;;;10286730;28;20271;-82
2021/07/13 00:29:12;;;;;;;2.33;1.67;;;22.10;99.90;;;;;;10289327;28;20227;-82
2021/07/13 00:34:14;;;;;;;1.60;1.50;;;22.10;99.90;;;;;;10319667;28;20283;-81
2021/07/13 00:39:16;;;;;;;2.07;1.87;;;22.00;99.90;;;;;;10270751;28;20256;-82
2021/07/13 00:44:20;;;;;;;3.73;1.90;;;22.00;99.90;;;;;;10287341;28;20200;-82
2021/07/13 00:49:23;;;;;;;3.10;2.03;;;21.90;99.90;;;;;;10273578;28;20230;-82
2021/07/13 00:54:26;;;;;;;3.60;2.33;;;22.00;99.90;;;;;;10281975;28;20581;-81
2021/07/13 00:59:29;;;;;;;2.63;2.43;;;22.00;99.90;;;;;;10278475;28;20200;-81
2021/07/13 01:04:32;;;;;;;2.43;2.23;;;21.90;99.90;;;;;;10297322;28;20527;-81
2021/07/13 01:09:44;;;;;;;2.40;2.20;;;21.90;99.90;;;;;;10301944;28;20303;-81
2021/07/13 01:14:54;;;;;;;2.73;2.47;;;21.90;99.90;;;;;;10299523;28;20208;-81
2021/07/13 01:20:36;;;;;;;2.37;2.17;;;21.80;99.90;;;;;;10278922;28;20235;-82
2021/07/13 01:25:42;;;;;;;2.53;2.33;;;21.70;99.90;;;;;;10285128;28;20282;-82
2021/07/13 01:30:50;;;;;;;2.90;2.20;;;21.70;99.90;;;;;;10286436;28;20216;-81
2021/07/13 01:35:56;;;;;;;3.17;1.87;;;21.70;99.90;;;;;;10316196;28;20216;-81
2021/07/13 01:41:03;;;;;;;8.10;2.20;;;21.60;99.90;;;;;;10306612;28;20275;-82
2021/07/13 01:46:08;;;;;;;2.40;1.80;;;21.60;99.90;;;;;;10302961;28;20216;-82
2021/07/13 01:51:12;;;;;;;6.03;2.07;;;21.50;99.90;;;;;;10285537;28;20259;-81
2021/07/13 01:56:14;;;;;;;4.10;2.13;;;21.40;99.90;;;;;;10302545;28;20470;-81
2021/07/13 02:01:22;;;;;;;5.93;2.70;;;21.30;99.90;;;;;;10303059;28;20276;-81
2021/07/13 02:06:26;;;;;;;5.60;2.50;;;21.00;99.90;;;;;;10301279;28;20308;-81
2021/07/13 02:11:29;;;;;;;3.53;2.37;;;20.80;99.90;;;;;;10284278;28;20263;-81
2021/07/13 02:16:33;;;;;;;5.67;2.40;;;20.60;99.90;;;;;;10283764;28;20224;-81
2021/07/13 02:21:35;;;;;;;4.83;2.40;;;20.50;99.90;;;;;;10285308;28;20196;-81
2021/07/13 02:26:43;;;;;;;5.63;2.80;;;20.40;99.90;;;;;;10318240;28;20654;-83
2021/07/13 02:31:51;;;;;;;4.53;3.50;;;20.30;99.90;;;;;;10297747;28;20585;-84
2021/07/13 02:36:55;;;;;;;4.60;3.40;;;20.10;99.90;;;;;;10286094;28;20230;-83
2021/07/13 02:42:00;;;;;;;7.47;3.77;;;20.00;99.90;;;;;;10295590;28;20208;-83
2021/07/13 02:47:07;;;;;;;4.33;3.50;;;19.90;99.90;;;;;;10293974;28;20251;-83
2021/07/13 02:52:11;;;;;;;4.77;4.37;;;19.90;99.90;;;;;;10279389;28;20407;-83
2021/07/13 02:57:13;;;;;;;4.50;4.10;;;19.80;99.90;;;;;;10294001;28;20215;-83
2021/07/13 03:02:19;;;;;;;5.83;3.87;;;19.80;99.90;;;;;;10296666;28;20282;-83
2021/07/13 03:07:21;;;;;;;10.53;4.50;;;19.80;99.90;;;;;;10296126;28;20216;-83
2021/07/13 03:12:24;;;;;;;4.43;4.13;;;19.80;99.90;;;;;;10280319;28;20227;-84
2021/07/13 03:17:28;;;;;;;3.83;3.53;;;19.80;99.90;;;;;;10280037;28;20220;-84
2021/07/13 03:22:34;;;;;;;4.07;3.77;;;19.80;99.90;;;;;;10296501;28;20220;-84
2021/07/13 03:27:37;;;;;;;8.10;7.40;;;19.80;99.90;;;;;;10263474;28;20282;-83
2021/07/13 03:32:42;;;;;;;3.90;3.60;;;19.80;99.90;;;;;;10296811;28;20220;-83
2021/07/13 03:37:44;;;;;;;3.63;3.43;;;19.80;99.90;;;;;;10296928;28;20294;-84
2021/07/13 03:42:48;;;;;;;3.97;3.57;;;19.70;99.90;;;;;;10297218;28;20208;-84
2021/07/13 03:47:54;;;;;;;5.67;4.30;;;19.70;99.90;;;;;;10279477;28;20251;-84
2021/07/13 03:52:56;;;;;;;4.13;3.73;;;19.70;99.90;;;;;;10297040;28;20224;-84
2021/07/13 03:57:58;;;;;;;7.13;4.40;;;19.80;99.90;;;;;;10280891;28;20239;-84
2021/07/13 04:03:03;;;;;;;6.93;6.03;;;19.90;99.90;;;;;;10301694;28;20594;-84
2021/07/13 04:08:06;;;;;;;5.93;5.37;;;19.90;99.90;;;;;;10304429;28;20243;-84
2021/07/13 04:13:08;;;;;;;7.37;6.30;;;20.00;99.90;;;;;;10305459;28;20692;-84
2021/07/13 04:18:12;;;;;;;11.80;7.07;;;20.10;99.90;;;;;;10277696;28;20214;-84
2021/07/13 04:23:14;;;;;;;7.37;6.77;;;20.10;99.90;;;;;;10304261;28;20668;-83
2021/07/13 04:28:16;;;;;;;8.30;6.80;;;20.20;99.90;;;;;;10317619;28;20719;-83
2021/07/13 04:33:19;;;;;;;7.40;6.90;;;20.20;99.90;;;;;;10304100;28;20222;-83
2021/07/13 04:38:22;;;;;;;7.90;7.20;;;20.20;99.90;;;;;;10297897;28;20224;-83
2021/07/13 04:43:24;;;;;;;7.03;6.43;;;20.30;99.90;;;;;;10243300;29;20727;-84
2021/07/13 04:48:28;;;;;;;9.80;7.53;;;20.40;99.90;;;;;;10246138;29;20696;-84
2021/07/13 04:53:31;;;;;;;7.60;7.03;;;20.40;99.90;;;;;;10263845;28;20234;-84
2021/07/13 04:58:33;;;;;;;7.07;6.47;;;20.50;99.90;;;;;;10262692;28;20236;-82
2021/07/13 05:03:37;;;;;;;6.37;5.97;;;20.60;99.90;;;;;;10262535;29;20636;-81
2021/07/13 05:08:39;;;;;;;5.27;4.87;;;20.60;99.90;;;;;;10264173;28;20221;-81
2021/07/13 05:13:41;;;;;;;5.70;5.30;;;20.60;99.90;;;;;;10303852;28;20227;-81
2021/07/13 05:18:45;;;;;;;5.20;4.60;;;20.60;99.90;;;;;;10303310;28;20215;-81
2021/07/13 05:23:47;;;;;;;4.60;4.30;;;20.70;99.90;;;;;;10303421;28;20196;-81
2021/07/13 05:28:50;;;;;;;3.90;3.60;;;20.70;99.90;;;;;;10301906;28;20234;-81
2021/07/13 05:33:57;;;;;;;3.90;3.60;;;20.80;99.90;;;;;;10285984;28;20239;-82
2021/07/13 05:39:00;;;;;;;4.23;3.70;;;20.90;99.90;;;;;;10295323;28;20227;-82
2021/07/13 05:44:02;;;;;;;3.90;3.60;;;21.00;99.90;;;;;;10304614;28;20557;-81
2021/07/13 05:49:06;;;;;;;4.23;3.83;;;21.00;99.90;;;;;;10269591;28;20255;-81
2021/07/13 05:54:08;;;;;;;4.33;3.73;;;21.00;99.90;;;;;;10304059;28;20255;-82
2021/07/13 05:59:10;;;;;;;5.27;4.80;;;21.00;99.90;;;;;;10386186;23;20250;-83
2021/07/13 06:04:14;;;;;;;5.00;4.60;;;21.10;99.90;;;;;;10373143;28;20222;-83
2021/07/13 06:09:16;;;;;;;4.53;4.10;;;21.10;99.90;;;;;;10389460;28;20653;-83
2021/07/13 06:14:18;;;;;;;6.43;4.50;;;21.00;99.90;;;;;;10356867;28;20254;-83
2021/07/13 06:19:21;;;;;;;4.27;3.87;;;21.00;99.90;;;;;;10356587;28;20593;-83
2021/07/13 06:24:24;;;;;;;4.57;4.27;;;21.00;99.90;;;;;;10371875;28;20195;-82
2021/07/13 06:29:26;;;;;;;4.87;4.47;;;20.80;99.90;;;;;;10356259;28;20581;-82
2021/07/13 06:34:29;;;;;;;4.40;4.00;;;20.70;99.90;;;;;;10375148;28;20753;-83
2021/07/13 06:39:31;;;;;;;6.43;4.10;;;20.60;99.90;;;;;;10371918;28;20218;-83
2021/07/13 06:44:33;;;;;;;4.70;4.40;;;20.50;99.90;;;;;;10356199;28;20234;-83
2021/07/13 06:49:37;;;;;;;4.80;4.40;;;20.50;99.90;;;;;;10355364;28;20236;-83
2021/07/13 06:54:39;;;;;;;4.90;4.50;;;20.40;99.90;;;;;;10355629;28;20234;-83
2021/07/13 06:59:41;;;;;;;5.40;2.90;;;20.40;99.90;;;;;;10374080;28;20286;-83
2021/07/13 07:04:45;;;;;;;6.60;3.50;;;20.40;99.90;;;;;;10373146;28;20322;-83
2021/07/13 07:09:47;;;;;;;7.63;4.20;;;20.30;99.90;;;;;;10380545;28;20227;-83
2021/07/13 07:14:49;;;;;;;6.07;3.83;;;20.30;99.90;;;;;;10332511;28;20226;-83
2021/07/13 07:19:52;;;;;;;3.60;3.40;;;20.40;99.90;;;;;;10332765;28;20229;-83
2021/07/13 07:24:54;;;;;;;3.43;3.10;;;20.40;99.90;;;;;;10367968;28;20195;-84
2021/07/13 07:29:57;;;;;;;4.50;4.10;;;20.40;99.90;;;;;;10377271;28;20229;-83
2021/07/13 07:35:00;;;;;;;4.50;4.20;;;20.30;99.90;;;;;;10363404;28;20218;-84
2021/07/13 07:40:04;;;;;;;5.13;4.63;;;20.20;99.90;;;;;;10383901;28;20265;-84
2021/07/13 07:45:08;;;;;;;5.13;4.63;;;20.10;99.90;;;;;;10384773;28;20203;-84
2021/07/13 07:50:13;;;;;;;5.50;5.20;;;20.10;99.90;;;;;;10401530;28;20233;-83
2021/07/13 07:55:16;;;;;;;5.17;4.77;;;20.00;99.90;;;;;;10372316;28;20253;-84
2021/07/13 08:00:19;;;;;;;5.37;4.87;;;20.00;99.90;;;;;;10383406;28;20202;-83
2021/07/13 08:05:26;;;;;;;4.77;4.47;;;20.00;99.90;;;;;;10354546;28;20222;-83
2021/07/13 08:10:28;;;;;;;6.20;5.60;;;20.00;99.90;;;;;;10340285;28;20241;-83
2021/07/13 08:15:30;;;;;;;5.20;4.80;;;20.00;99.90;;;;;;10329837;28;20682;-83
2021/07/13 08:20:34;;;;;;;5.57;5.07;;;20.00;99.90;;;;;;10331191;28;20207;-83
2021/07/13 08:25:36;;;;;;;5.37;4.93;;;20.00;99.90;;;;;;10352771;28;20690;-84
2021/07/13 08:30:38;;;;;;;4.87;4.43;;;20.00;99.90;;;;;;10372644;28;20289;-83
2021/07/13 08:35:41;;;;;;;5.13;4.83;;;20.00;99.90;;;;;;10373321;28;20716;-83
2021/07/13 08:40:44;;;;;;;6.27;5.67;;;20.00;99.90;;;;;;10370493;28;20210;-83
2021/07/13 08:45:47;;;;;;;5.90;5.40;;;20.00;99.90;;;;;;10358871;28;20245;-83
2021/07/13 08:50:55;;;;;;;10.57;5.93;;;20.00;99.90;;;;;;10376789;28;20517;-83
2021/07/13 08:55:57;;;;;;;7.67;6.97;;;20.00;99.90;;;;;;10380339;28;20222;-83
2021/07/13 09:00:59;;;;;;;6.67;6.07;;;20.00;99.90;;;;;;10376166;28;20273;-83
2021/07/13 09:06:04;;;;;;;6.90;6.27;;;20.00;99.90;;;;;;10376433;28;20222;-82
2021/07/13 09:11:10;;;;;;;7.30;6.70;;;20.10;99.90;;;;;;10378489;28;20582;-83
2021/07/13 09:16:14;;;;;;;8.23;7.50;;;20.10;99.90;;;;;;10377483;28;20218;-82
2021/07/13 09:21:21;;;;;;;5.07;4.57;;;20.00;99.90;;;;;;10364471;28;20290;-83
2021/07/13 09:26:36;;;;;;;4.70;3.90;;;19.90;99.90;;;;;;10366775;28;20218;-83
2021/07/13 09:31:40;;;;;;;5.63;3.20;;;19.60;99.90;;;;;;10384915;28;20210;-83
2021/07/13 09:36:51;;;;;;;2.97;2.77;;;19.50;99.90;;;;;;10383747;28;20565;-84
2021/07/13 09:41:54;;;;;;;2.50;2.20;;;19.40;99.90;;;;;;10367736;28;20207;-83
2021/07/13 09:46:56;;;;;;;1.93;1.83;;;19.30;99.90;;;;;;10384676;28;20231;-83
2021/07/13 09:52:01;;;;;;;1.90;1.90;;;19.10;99.90;;;;;;10385480;28;20250;-83
2021/07/13 09:57:06;;;;;;;2.37;2.07;;;19.00;99.90;;;;;;10364137;28;20596;-83
2021/07/13 10:02:10;;;;;;;2.40;2.30;;;18.90;99.90;;;;;;10380139;28;20199;-83
2021/07/13 10:07:16;;;;;;;2.40;2.30;;;18.70;99.90;;;;;;10380325;28;20628;-83
2021/07/13 10:12:20;;;;;;;1.80;1.80;;;18.60;99.90;;;;;;10363485;28;20233;-83
2021/07/13 10:17:25;;;;;;;1.73;1.63;;;18.50;99.90;;;;;;10359890;28;20233;-83
2021/07/13 10:22:30;;;;;;;3.30;2.30;;;18.40;99.90;;;;;;10360751;28;20194;-83
2021/07/13 10:27:34;;;;;;;4.67;2.27;;;18.40;99.90;;;;;;10361960;28;20234;-83
2021/07/13 10:32:41;;;;;;;2.10;1.90;;;18.50;99.90;;;;;;10377028;28;20232;-83
2021/07/13 10:44:34;;;;;;;1.97;1.87;;;18.70;99.90;;;;;;10331388;28;20622;-83
2021/07/13 10:50:13;;;;;;;2.27;1.80;;;18.60;99.90;;;;;;10360243;28;20245;-83
2021/07/13 10:56:29;;;;;;;1.60;1.50;;;18.30;99.90;;;;;;10375888;28;20268;-83
2021/07/13 11:08:58;;;;;;;1.30;1.20;;;18.00;99.90;;;;;;10356469;28;20218;-83
2021/07/13 11:14:22;;;;;;;2.37;1.83;;;17.90;99.90;;;;;;10327142;28;20226;-83
2021/07/13 11:31:32;;;;;;;3.40;1.80;;;18.30;99.90;;;;;;10379034;28;20245;-83
2021/07/13 11:37:19;;;;;;;1.30;1.30;;;18.20;99.90;;;;;;10379186;28;20230;-83
2021/07/13 11:43:01;;;;;;;1.57;1.30;;;18.00;99.90;;;;;;10356099;28;20199;-83
2021/07/13 11:54:33;;;;;;;1.77;1.67;;;18.00;99.90;;;;;;10377982;28;20214;-83
2021/07/13 11:59:41;;;;;;;1.20;1.20;;;18.10;99.90;;;;;;10349331;23;20230;-80
2021/07/13 12:04:48;;;;;;;1.40;1.30;;;18.20;99.90;;;;;;10337363;28;20187;-81
2021/07/13 12:09:50;;;;;;;1.53;1.37;;;18.30;99.90;;;;;;10336418;28;20226;-81
2021/07/13 12:14:55;;;;;;;1.10;1.00;;;18.50;99.90;;;;;;10337463;28;20253;-80
2021/07/13 12:20:02;;;;;;;1.30;1.20;;;18.80;99.90;;;;;;10342424;28;20211;-80
2021/07/13 12:25:05;;;;;;;3.27;1.10;;;19.00;99.90;;;;;;10345867;28;20199;-80
2021/07/13 12:30:14;;;;;;;1.20;1.10;;;19.10;99.90;;;;;;10344943;28;20242;-80
2021/07/13 12:35:18;;;;;;;0.90;0.90;;;19.30;99.90;;;;;;10346783;28;20283;-80
2021/07/13 12:40:20;;;;;;;0.90;0.90;;;19.30;99.90;;;;;;10349004;28;20312;-80
2021/07/13 12:45:24;;;;;;;0.93;0.93;;;19.40;99.90;;;;;;10344036;28;20618;-80
2021/07/13 12:50:29;;;;;;;1.50;1.40;;;19.50;99.90;;;;;;10344464;28;20264;-80
2021/07/13 12:55:33;;;;;;;1.10;1.10;;;19.50;99.90;;;;;;10343854;28;20254;-80
2021/07/13 13:00:36;;;;;;;1.03;1.03;;;19.70;99.90;;;;;;10323913;28;20195;-80
2021/07/13 13:05:41;;;;;;;2.10;1.10;;;19.90;99.90;;;;;;10354464;28;20195;-80
2021/07/13 13:10:46;;;;;;;0.90;0.90;;;20.10;99.90;;;;;;10340626;28;20203;-80
2021/07/13 13:15:48;;;;;;;1.20;1.10;;;20.20;99.90;;;;;;10327374;28;20226;-80
2021/07/13 13:20:52;;;;;;;0.80;0.80;;;20.20;99.90;;;;;;10362273;28;20186;-80
2021/07/13 13:25:54;;;;;;;1.50;1.40;;;20.30;99.90;;;;;;10362280;28;20714;-80
2021/07/13 13:30:57;;;;;;;1.00;1.00;;;20.30;99.90;;;;;;10340759;28;20266;-80
2021/07/13 13:36:10;;;;;;;1.97;1.27;;;20.40;99.90;;;;;;10362847;28;20593;-80
2021/07/13 13:41:13;;;;;;;1.00;1.00;;;20.30;99.90;;;;;;10359546;28;20195;-80
2021/07/13 13:46:18;;;;;;;1.20;1.10;;;20.40;99.90;;;;;;10362382;28;20227;-80
2021/07/13 13:51:22;;;;;;;1.83;1.10;;;20.50;99.90;;;;;;10359369;28;20199;-80
2021/07/13 13:56:27;;;;;;;1.37;1.27;;;20.60;99.90;;;;;;10362038;28;20265;-80
2021/07/13 14:01:30;;;;;;;1.40;1.30;;;20.60;99.90;;;;;;10341056;28;20203;-80
2021/07/13 14:06:34;;;;;;;1.23;1.20;;;20.80;99.90;;;;;;10341011;28;20215;-80
2021/07/13 14:11:36;;;;;;;2.60;1.73;;;20.80;99.90;;;;;;10358218;28;20594;-81
2021/07/13 14:16:38;;;;;;;1.37;1.30;;;21.00;99.90;;;;;;10353986;28;20218;-80
2021/07/13 14:21:42;;;;;;;1.43;1.33;;;21.20;99.90;;;;;;10367839;28;20203;-80
2021/07/13 14:26:44;;;;;;;1.50;1.40;;;21.10;99.90;;;;;;10362905;28;20228;-80
2021/07/13 14:31:46;;;;;;;2.00;1.40;;;21.00;99.90;;;;;;10338227;28;20667;-80
2021/07/13 14:36:50;;;;;;;1.57;1.40;;;21.00;99.90;;;;;;10354917;28;20313;-80
2021/07/13 14:41:52;;;;;;;1.20;1.20;;;21.00;99.90;;;;;;10356067;28;20200;-80
2021/07/13 14:46:54;;;;;;;1.07;1.07;;;21.00;99.90;;;;;;10370997;28;20237;-80
2021/07/13 14:51:57;;;;;;;1.87;1.40;;;20.80;99.90;;;;;;10399358;28;20280;-80
2021/07/13 14:56:59;;;;;;;1.50;1.40;;;20.60;99.90;;;;;;10378748;28;20690;-80
2021/07/13 15:02:02;;;;;;;1.50;1.40;;;20.60;99.90;;;;;;10395544;28;20195;-81
2021/07/13 15:07:05;;;;;;;1.73;1.60;;;20.50;99.90;;;;;;10399411;28;20316;-80
2021/07/13 15:12:08;;;;;;;2.03;1.40;;;20.50;99.90;;;;;;10381075;28;20289;-81
2021/07/13 15:17:10;;;;;;;1.80;1.70;;;20.60;99.90;;;;;;10386028;28;20250;-81
2021/07/13 15:22:14;;;;;;;1.60;1.50;;;20.70;99.90;;;;;;10383356;28;20273;-81
2021/07/13 15:27:16;;;;;;;1.30;1.20;;;20.60;99.90;;;;;;10398591;28;20270;-80
2021/07/13 15:32:18;;;;;;;1.70;1.60;;;20.60;99.90;;;;;;10379308;28;20206;-81
2021/07/13 15:37:22;;;;;;;1.27;1.27;;;20.60;99.90;;;;;;10361003;28;20714;-81
2021/07/13 15:42:24;;;;;;;1.70;1.60;;;20.80;99.90;;;;;;10361689;28;20195;-81
2021/07/13 15:47:28;;;;;;;1.40;1.33;;;20.80;99.90;;;;;;10380715;28;20229;-81
2021/07/13 15:52:32;;;;;;;1.87;1.77;;;20.80;99.90;;;;;;10401280;28;20209;-81
2021/07/13 15:57:34;;;;;;;2.23;1.60;;;20.80;99.90;;;;;;10388371;28;20226;-81
2021/07/13 16:02:36;;;;;;;1.40;1.30;;;20.70;99.90;;;;;;10380793;28;20198;-80
2021/07/13 16:07:40;;;;;;;3.23;1.70;;;20.60;99.90;;;;;;10358735;28;20229;-82
2021/07/13 16:12:42;;;;;;;2.07;1.97;;;20.50;99.90;;;;;;10367520;28;20216;-80
2021/07/13 16:17:44;;;;;;;2.27;2.07;;;20.40;99.90;;;;;;10417754;28;20248;-81
2021/07/13 16:22:48;;;;;;;1.60;1.50;;;20.30;99.90;;;;;;10397467;28;20195;-81
2021/07/13 16:27:50;;;;;;;1.77;1.67;;;20.20;99.90;;;;;;10386665;28;20281;-79
2021/07/13 16:32:52;;;;;;;2.77;1.80;;;20.30;99.90;;;;;;10385447;28;20225;-81
2021/07/13 16:37:56;;;;;;;1.60;1.50;;;20.40;99.90;;;;;;10367145;28;20297;-80
2021/07/13 16:42:59;;;;;;;1.70;1.60;;;20.50;99.90;;;;;;10351759;28;20198;-79
2021/07/13 16:48:01;;;;;;;1.20;1.20;;;20.60;99.90;;;;;;10386817;28;20219;-81
2021/07/13 16:53:05;;;;;;;1.60;1.50;;;20.60;99.90;;;;;;10369482;28;20222;-81
2021/07/13 16:58:07;;;;;;;1.43;1.33;;;20.60;99.90;;;;;;10368465;28;20695;-81
2021/07/13 17:03:09;;;;;;;1.60;1.50;;;20.60;99.90;;;;;;10383817;28;20698;-81
2021/07/13 17:08:12;;;;;;;1.40;1.30;;;20.50;99.90;;;;;;10381804;28;20226;-81
2021/07/13 17:13:16;;;;;;;1.53;1.43;;;20.40;99.90;;;;;;10383281;28;20222;-81
2021/07/13 17:18:19;;;;;;;1.50;1.40;;;20.40;99.90;;;;;;10378715;28;20218;-80
2021/07/13 17:23:23;;;;;;;1.90;1.80;;;20.40;99.90;;;;;;10380778;28;20628;-81
2021/07/13 17:28:25;;;;;;;1.43;1.33;;;20.40;99.90;;;;;;10382046;28;20695;-79
2021/07/13 17:33:28;;;;;;;1.50;1.40;;;20.40;99.90;;;;;;10381090;28;20577;-79
2021/07/13 17:38:31;;;;;;;1.60;1.50;;;20.40;99.90;;;;;;10382170;28;20218;-80
2021/07/13 17:43:33;;;;;;;1.40;1.30;;;20.30;99.90;;;;;;10364432;28;20297;-80
2021/07/13 17:48:35;;;;;;;1.53;1.40;;;20.40;99.90;;;;;;10380600;28;20223;-80
2021/07/13 17:53:39;;;;;;;1.90;1.80;;;20.30;99.90;;;;;;10364929;28;20217;-81
2021/07/13 17:58:41;;;;;;;2.30;2.20;;;20.40;99.90;;;;;;10378781;22;20603;-82
2021/07/13 18:03:43;;;;;;;1.83;1.70;;;20.30;99.90;;;;;;10338115;28;20194;-82
2021/07/13 18:08:46;;;;;;;2.90;1.40;;;20.20;99.90;;;;;;10318971;28;20227;-82
2021/07/13 18:13:48;;;;;;;1.40;1.30;;;20.20;99.90;;;;;;10337463;28;20219;-82
2021/07/13 18:18:51;;;;;;;2.07;1.87;;;20.20;99.90;;;;;;10317988;28;20234;-81
2021/07/13 18:23:54;;;;;;;2.50;1.50;;;20.20;99.90;;;;;;10319588;28;20565;-82
2021/07/13 18:28:56;;;;;;;1.50;1.40;;;20.10;99.90;;;;;;10325374;28;20336;-82
2021/07/13 18:33:58;;;;;;;2.70;2.10;;;20.10;99.90;;;;;;10302694;28;20318;-82
2021/07/13 18:39:02;;;;;;;1.80;1.60;;;20.00;99.90;;;;;;10319757;28;20231;-82
2021/07/13 18:44:05;;;;;;;1.80;1.70;;;20.00;99.90;;;;;;10298876;28;20208;-82
2021/07/13 18:49:07;;;;;;;1.43;1.43;;;20.00;99.90;;;;;;10335138;28;20294;-82
2021/07/13 18:54:15;;;;;;;2.00;1.40;;;20.00;99.90;;;;;;10319609;28;20237;-82
2021/07/13 18:59:17;;;;;;;1.80;1.70;;;20.00;99.90;;;;;;10320204;28;20258;-81
2021/07/13 19:04:24;;;;;;;1.63;1.53;;;20.00;99.90;;;;;;10335724;28;20199;-81
2021/07/13 19:09:27;;;;;;;3.70;1.60;;;19.80;99.90;;;;;;10339109;28;20660;-81
2021/07/13 19:14:29;;;;;;;1.87;1.57;;;19.60;99.90;;;;;;10315097;28;20226;-82
2021/07/13 19:19:32;;;;;;;1.60;1.50;;;19.40;99.90;;;;;;10333931;28;20702;-82
2021/07/13 19:24:35;;;;;;;2.23;1.60;;;19.40;99.90;;;;;;10318792;28;20207;-82
2021/07/13 19:29:37;;;;;;;2.13;1.60;;;19.30;99.90;;;;;;10317808;28;20222;-82
2021/07/13 19:40:11;;;;;;;3.23;2.20;;;19.10;99.90;;;;;;10311354;28;20226;-82
2021/07/13 19:45:14;;;;;;;1.50;1.47;;;19.00;99.90;;;;;;10277871;28;20216;-83
2021/07/13 19:50:17;;;;;;;2.70;1.63;;;18.90;99.90;;;;;;10261916;28;20266;-82
2021/07/13 19:55:20;;;;;;;2.10;1.80;;;18.80;99.90;;;;;;10313090;28;20706;-81
2021/07/13 20:00:25;;;;;;;2.10;2.00;;;18.80;99.90;;;;;;10336309;28;20231;-82
2021/07/13 20:05:27;;;;;;;1.70;1.60;;;18.80;99.90;;;;;;10302127;28;20200;-82
2021/07/13 20:10:31;;;;;;;1.73;1.63;;;18.70;99.90;;;;;;10333134;28;20231;-81
2021/07/13 20:15:33;;;;;;;2.10;2.00;;;18.60;99.90;;;;;;10310635;28;20266;-81
2021/07/13 20:20:35;;;;;;;2.20;2.00;;;18.60;99.90;;;;;;10332664;28;20235;-81
2021/07/13 20:25:39;;;;;;;2.40;2.20;;;18.50;99.90;;;;;;10334964;28;20243;-81
2021/07/13 20:30:41;;;;;;;2.10;1.80;;;18.50;99.90;;;;;;10316468;28;20234;-81
2021/07/13 20:35:43;;;;;;;2.40;2.00;;;18.50;99.90;;;;;;10334416;28;20410;-82
2021/07/13 20:40:46;;;;;;;2.43;2.03;;;18.40;99.90;;;;;;10320089;28;20246;-81
2021/07/13 20:45:49;;;;;;;1.97;1.87;;;18.40;99.90;;;;;;10323302;28;20655;-82
2021/07/13 20:50:51;;;;;;;3.20;2.07;;;18.40;99.90;;;;;;10325320;28;20204;-82
2021/07/13 20:55:55;;;;;;;2.17;2.07;;;18.30;99.90;;;;;;10342957;28;20688;-82
2021/07/13 21:00:57;;;;;;;2.40;2.30;;;18.30;99.90;;;;;;10323563;28;20206;-81
2021/07/13 21:05:59;;;;;;;2.30;2.20;;;18.30;99.90;;;;;;10323882;28;20210;-82
2021/07/13 21:11:02;;;;;;;2.17;2.07;;;18.20;99.90;;;;;;10338978;28;20211;-81
2021/07/13 21:16:06;;;;;;;2.53;2.20;;;18.20;99.90;;;;;;10320311;28;20251;-82
2021/07/13 21:21:08;;;;;;;2.70;1.83;;;18.10;99.90;;;;;;10321371;28;20736;-82
2021/07/13 21:26:11;;;;;;;3.80;2.23;;;18.00;99.90;;;;;;10321753;28;20231;-83
2021/07/13 21:31:14;;;;;;;2.00;1.90;;;18.00;99.90;;;;;;10340935;28;20282;-81
2021/07/13 21:36:16;;;;;;;2.23;2.13;;;17.90;99.90;;;;;;10322581;28;20719;-80
2021/07/13 21:41:19;;;;;;;2.17;2.00;;;17.80;99.90;;;;;;10307228;28;20211;-81
2021/07/13 21:46:21;;;;;;;2.40;2.20;;;17.80;99.90;;;;;;10320663;28;20262;-80
2021/07/13 21:51:23;;;;;;;2.37;2.23;;;17.80;99.90;;;;;;10356029;28;20204;-81
2021/07/13 21:56:27;;;;;;;2.10;2.00;;;17.70;99.90;;;;;;10358159;28;20250;-80
2021/07/13 22:01:31;;;;;;;2.30;2.10;;;17.70;99.90;;;;;;10355548;28;20191;-82
